sensor_id;sensor_type;location;lat;lon;timestamp;P1;durP1;ratioP1;P2;durP2;ratioP2
75645;SDS011;64237;52.438;13.240;2023-10-19T00:02:08;13.63;;;6.10;;
75645;SDS011;64237;52.438;13.240;2023-10-19T00:04:34;13.02;;;5.93;;
75645;SDS011;64237;52.438;13.240;2023-10-19T00:07:03;13.98;;;6.10;;
75645;SDS011;64237;52.438;13.240;2023-10-19T00:09:29;13.65;;;6.22;;
75645;SDS011;64237;52.438;13.240;2023-10-19T00:12:03;15.45;;;6.82;;
75645;SDS011;64237;52.438;13.240;2023-10-19T00:14:31;12.43;;;5.90;;
75645;SDS011;64237;52.438;13.240;2023-10-19T00:16:57;13.35;;;6.18;;
75645;SDS011;64237;52.438;13.240;2023-10-19T00:19:26;14.50;;;6.50;;
75645;SDS011;64237;52.438;13.240;2023-10-19T00:21:55;14.40;;;6.38;;
75645;SDS011;64237;52.438;13.240;2023-10-19T00:24:26;15.90;;;6.75;;
75645;SDS011;64237;52.438;13.240;2023-10-19T00:26:52;13.63;;;6.38;;
75645;SDS011;64237;52.438;13.240;2023-10-19T00:29:20;16.75;;;6.75;;
75645;SDS011;64237;52.438;13.240;2023-10-19T00:32:05;15.52;;;7.05;;
75645;SDS011;64237;52.438;13.240;2023-10-19T00:34:31;13.60;;;6.05;;
75645;SDS011;64237;52.438;13.240;2023-10-19T00:36:58;15.15;;;6.38;;
75645;SDS011;64237;52.438;13.240;2023-10-19T00:39:32;14.18;;;6.30;;
75645;SDS011;64237;52.438;13.240;2023-10-19T00:44:33;15.02;;;6.80;;
75645;SDS011;64237;52.438;13.240;2023-10-19T00:47:07;15.15;;;6.40;;
75645;SDS011;64237;52.438;13.240;2023-10-19T00:49:38;15.63;;;6.53;;
75645;SDS011;64237;52.438;13.240;2023-10-19T00:52:03;14.70;;;6.57;;
75645;SDS011;64237;52.438;13.240;2023-10-19T00:54:44;13.52;;;6.50;;
75645;SDS011;64237;52.438;13.240;2023-10-19T00:57:15;14.35;;;6.63;;
75645;SDS011;64237;52.438;13.240;2023-10-19T00:59:47;19.23;;;7.00;;
75645;SDS011;64237;52.438;13.240;2023-10-19T01:02:14;16.90;;;6.35;;
75645;SDS011;64237;52.438;13.240;2023-10-19T01:04:47;15.88;;;7.10;;
75645;SDS011;64237;52.438;13.240;2023-10-19T01:07:32;20.23;;;7.00;;
75645;SDS011;64237;52.438;13.240;2023-10-19T01:10:04;18.20;;;6.38;;
75645;SDS011;64237;52.438;13.240;2023-10-19T01:12:36;17.50;;;7.47;;
75645;SDS011;64237;52.438;13.240;2023-10-19T01:17:38;16.42;;;6.45;;
75645;SDS011;64237;52.438;13.240;2023-10-19T01:20:23;15.85;;;7.00;;
75645;SDS011;64237;52.438;13.240;2023-10-19T01:22:55;18.17;;;7.05;;
75645;SDS011;64237;52.438;13.240;2023-10-19T01:25:53;14.38;;;6.15;;
75645;SDS011;64237;52.438;13.240;2023-10-19T01:28:20;13.90;;;6.43;;
75645;SDS011;64237;52.438;13.240;2023-10-19T01:30:50;16.83;;;7.22;;
75645;SDS011;64237;52.438;13.240;2023-10-19T01:33:19;16.13;;;6.35;;
75645;SDS011;64237;52.438;13.240;2023-10-19T01:35:45;13.18;;;6.43;;
75645;SDS011;64237;52.438;13.240;2023-10-19T01:38:30;13.55;;;5.90;;
75645;SDS011;64237;52.438;13.240;2023-10-19T01:43:28;18.27;;;7.05;;
75645;SDS011;64237;52.438;13.240;2023-10-19T01:45:56;17.27;;;7.20;;
75645;SDS011;64237;52.438;13.240;2023-10-19T01:48:23;14.40;;;5.97;;
75645;SDS011;64237;52.438;13.240;2023-10-19T01:51:05;15.05;;;6.47;;
75645;SDS011;64237;52.438;13.240;2023-10-19T01:53:31;17.42;;;6.50;;
75645;SDS011;64237;52.438;13.240;2023-10-19T01:56:05;14.70;;;6.63;;
75645;SDS011;64237;52.438;13.240;2023-10-19T02:01:01;16.30;;;6.78;;
75645;SDS011;64237;52.438;13.240;2023-10-19T02:03:39;17.80;;;6.70;;
75645;SDS011;64237;52.438;13.240;2023-10-19T02:06:08;15.68;;;6.07;;
75645;SDS011;64237;52.438;13.240;2023-10-19T02:08:41;15.90;;;6.53;;
75645;SDS011;64237;52.438;13.240;2023-10-19T02:11:09;14.35;;;6.38;;
75645;SDS011;64237;52.438;13.240;2023-10-19T02:13:41;15.95;;;6.28;;
75645;SDS011;64237;52.438;13.240;2023-10-19T02:16:08;14.88;;;5.85;;
75645;SDS011;64237;52.438;13.240;2023-10-19T02:18:33;16.23;;;6.95;;
75645;SDS011;64237;52.438;13.240;2023-10-19T02:21:00;13.88;;;5.97;;
75645;SDS011;64237;52.438;13.240;2023-10-19T02:23:31;15.68;;;6.82;;
75645;SDS011;64237;52.438;13.240;2023-10-19T02:25:57;16.77;;;7.10;;
75645;SDS011;64237;52.438;13.240;2023-10-19T02:28:23;15.38;;;6.65;;
75645;SDS011;64237;52.438;13.240;2023-10-19T02:30:55;16.17;;;7.00;;
75645;SDS011;64237;52.438;13.240;2023-10-19T02:33:20;18.17;;;6.80;;
75645;SDS011;64237;52.438;13.240;2023-10-19T02:35:45;18.42;;;7.07;;
75645;SDS011;64237;52.438;13.240;2023-10-19T02:38:12;16.90;;;7.30;;
75645;SDS011;64237;52.438;13.240;2023-10-19T02:40:38;15.38;;;6.57;;
75645;SDS011;64237;52.438;13.240;2023-10-19T02:43:03;17.90;;;7.22;;
75645;SDS011;64237;52.438;13.240;2023-10-19T02:45:29;15.55;;;7.00;;
75645;SDS011;64237;52.438;13.240;2023-10-19T02:47:56;17.48;;;6.63;;
75645;SDS011;64237;52.438;13.240;2023-10-19T02:50:22;14.77;;;6.47;;
75645;SDS011;64237;52.438;13.240;2023-10-19T02:52:51;15.55;;;6.60;;
75645;SDS011;64237;52.438;13.240;2023-10-19T02:55:18;15.90;;;6.95;;
75645;SDS011;64237;52.438;13.240;2023-10-19T02:57:45;15.48;;;7.00;;
75645;SDS011;64237;52.438;13.240;2023-10-19T03:00:13;17.83;;;6.78;;
75645;SDS011;64237;52.438;13.240;2023-10-19T03:02:39;17.58;;;7.18;;
75645;SDS011;64237;52.438;13.240;2023-10-19T03:05:06;14.80;;;6.68;;
75645;SDS011;64237;52.438;13.240;2023-10-19T03:07:42;19.17;;;7.60;;
75645;SDS011;64237;52.438;13.240;2023-10-19T03:10:09;17.75;;;7.28;;
75645;SDS011;64237;52.438;13.240;2023-10-19T03:12:49;19.65;;;7.07;;
75645;SDS011;64237;52.438;13.240;2023-10-19T03:15:15;15.88;;;6.82;;
75645;SDS011;64237;52.438;13.240;2023-10-19T03:17:41;18.88;;;7.03;;
75645;SDS011;64237;52.438;13.240;2023-10-19T03:20:07;18.48;;;6.78;;
75645;SDS011;64237;52.438;13.240;2023-10-19T03:22:38;14.77;;;6.88;;
75645;SDS011;64237;52.438;13.240;2023-10-19T03:25:13;15.25;;;7.05;;
75645;SDS011;64237;52.438;13.240;2023-10-19T03:28:07;16.77;;;6.40;;
75645;SDS011;64237;52.438;13.240;2023-10-19T03:30:41;15.20;;;6.80;;
75645;SDS011;64237;52.438;13.240;2023-10-19T03:33:07;18.25;;;7.15;;
75645;SDS011;64237;52.438;13.240;2023-10-19T03:35:37;18.90;;;7.38;;
75645;SDS011;64237;52.438;13.240;2023-10-19T03:40:39;18.08;;;7.47;;
75645;SDS011;64237;52.438;13.240;2023-10-19T03:43:04;16.05;;;7.03;;
75645;SDS011;64237;52.438;13.240;2023-10-19T03:45:41;17.58;;;6.85;;
75645;SDS011;64237;52.438;13.240;2023-10-19T03:48:12;17.10;;;7.32;;
75645;SDS011;64237;52.438;13.240;2023-10-19T03:50:37;17.80;;;7.68;;
75645;SDS011;64237;52.438;13.240;2023-10-19T03:53:03;17.65;;;7.28;;
75645;SDS011;64237;52.438;13.240;2023-10-19T03:55:29;15.93;;;7.47;;
75645;SDS011;64237;52.438;13.240;2023-10-19T03:57:55;18.50;;;7.70;;
75645;SDS011;64237;52.438;13.240;2023-10-19T04:00:21;16.17;;;7.18;;
75645;SDS011;64237;52.438;13.240;2023-10-19T04:02:50;20.38;;;6.75;;
75645;SDS011;64237;52.438;13.240;2023-10-19T04:05:18;15.98;;;6.57;;
75645;SDS011;64237;52.438;13.240;2023-10-19T04:07:48;18.17;;;7.55;;
75645;SDS011;64237;52.438;13.240;2023-10-19T04:10:20;17.85;;;7.68;;
75645;SDS011;64237;52.438;13.240;2023-10-19T04:13:03;15.85;;;7.45;;
75645;SDS011;64237;52.438;13.240;2023-10-19T04:15:29;17.95;;;7.07;;
75645;SDS011;64237;52.438;13.240;2023-10-19T04:17:58;17.75;;;8.00;;
75645;SDS011;64237;52.438;13.240;2023-10-19T04:20:26;16.33;;;7.55;;
75645;SDS011;64237;52.438;13.240;2023-10-19T04:22:51;18.92;;;7.40;;
75645;SDS011;64237;52.438;13.240;2023-10-19T04:25:18;17.55;;;7.75;;
75645;SDS011;64237;52.438;13.240;2023-10-19T04:27:45;18.20;;;7.63;;
75645;SDS011;64237;52.438;13.240;2023-10-19T04:30:11;19.70;;;7.93;;
75645;SDS011;64237;52.438;13.240;2023-10-19T04:32:44;20.77;;;7.97;;
75645;SDS011;64237;52.438;13.240;2023-10-19T04:35:13;23.15;;;8.07;;
75645;SDS011;64237;52.438;13.240;2023-10-19T04:37:46;19.33;;;8.43;;
75645;SDS011;64237;52.438;13.240;2023-10-19T04:40:12;19.90;;;7.82;;
75645;SDS011;64237;52.438;13.240;2023-10-19T04:42:37;18.80;;;7.28;;
75645;SDS011;64237;52.438;13.240;2023-10-19T04:45:03;17.65;;;7.72;;
75645;SDS011;64237;52.438;13.240;2023-10-19T04:47:30;19.30;;;7.47;;
75645;SDS011;64237;52.438;13.240;2023-10-19T04:49:58;16.75;;;7.90;;
75645;SDS011;64237;52.438;13.240;2023-10-19T04:52:23;18.48;;;8.13;;
75645;SDS011;64237;52.438;13.240;2023-10-19T04:54:48;20.90;;;8.88;;
75645;SDS011;64237;52.438;13.240;2023-10-19T04:57:14;22.25;;;8.40;;
75645;SDS011;64237;52.438;13.240;2023-10-19T04:59:39;21.77;;;8.65;;
75645;SDS011;64237;52.438;13.240;2023-10-19T05:02:04;17.45;;;7.75;;
75645;SDS011;64237;52.438;13.240;2023-10-19T05:04:31;19.50;;;7.95;;
75645;SDS011;64237;52.438;13.240;2023-10-19T05:06:56;20.02;;;8.40;;
75645;SDS011;64237;52.438;13.240;2023-10-19T05:09:22;14.73;;;7.45;;
75645;SDS011;64237;52.438;13.240;2023-10-19T05:11:47;20.58;;;8.52;;
75645;SDS011;64237;52.438;13.240;2023-10-19T05:14:13;19.52;;;8.80;;
75645;SDS011;64237;52.438;13.240;2023-10-19T05:16:41;17.92;;;8.00;;
75645;SDS011;64237;52.438;13.240;2023-10-19T05:19:07;18.13;;;7.82;;
75645;SDS011;64237;52.438;13.240;2023-10-19T05:21:32;23.52;;;9.60;;
75645;SDS011;64237;52.438;13.240;2023-10-19T05:23:59;21.55;;;9.20;;
75645;SDS011;64237;52.438;13.240;2023-10-19T05:26:25;20.00;;;8.77;;
75645;SDS011;64237;52.438;13.240;2023-10-19T05:28:51;23.92;;;10.07;;
75645;SDS011;64237;52.438;13.240;2023-10-19T05:31:16;19.08;;;8.82;;
75645;SDS011;64237;52.438;13.240;2023-10-19T05:33:42;21.40;;;9.85;;
75645;SDS011;64237;52.438;13.240;2023-10-19T05:36:07;22.92;;;9.07;;
75645;SDS011;64237;52.438;13.240;2023-10-19T05:38:33;23.58;;;9.63;;
75645;SDS011;64237;52.438;13.240;2023-10-19T05:40:58;20.40;;;9.50;;
75645;SDS011;64237;52.438;13.240;2023-10-19T05:43:26;19.83;;;9.18;;
75645;SDS011;64237;52.438;13.240;2023-10-19T05:45:53;25.38;;;10.18;;
75645;SDS011;64237;52.438;13.240;2023-10-19T05:48:19;21.40;;;9.40;;
75645;SDS011;64237;52.438;13.240;2023-10-19T05:50:45;19.05;;;8.88;;
75645;SDS011;64237;52.438;13.240;2023-10-19T05:53:11;23.08;;;9.40;;
75645;SDS011;64237;52.438;13.240;2023-10-19T05:55:36;23.70;;;10.13;;
75645;SDS011;64237;52.438;13.240;2023-10-19T05:58:04;24.70;;;10.15;;
75645;SDS011;64237;52.438;13.240;2023-10-19T06:00:29;23.42;;;9.43;;
75645;SDS011;64237;52.438;13.240;2023-10-19T06:02:56;20.23;;;9.35;;
75645;SDS011;64237;52.438;13.240;2023-10-19T06:05:23;22.02;;;9.70;;
75645;SDS011;64237;52.438;13.240;2023-10-19T06:07:49;25.83;;;9.98;;
75645;SDS011;64237;52.438;13.240;2023-10-19T06:10:19;24.17;;;10.85;;
75645;SDS011;64237;52.438;13.240;2023-10-19T06:12:47;25.38;;;11.25;;
75645;SDS011;64237;52.438;13.240;2023-10-19T06:15:15;22.38;;;9.48;;
75645;SDS011;64237;52.438;13.240;2023-10-19T06:17:41;23.40;;;10.57;;
75645;SDS011;64237;52.438;13.240;2023-10-19T06:20:10;25.15;;;10.93;;
75645;SDS011;64237;52.438;13.240;2023-10-19T06:22:45;25.85;;;11.50;;
75645;SDS011;64237;52.438;13.240;2023-10-19T06:25:15;23.48;;;10.68;;
75645;SDS011;64237;52.438;13.240;2023-10-19T06:27:42;24.88;;;10.90;;
75645;SDS011;64237;52.438;13.240;2023-10-19T06:30:08;24.65;;;10.20;;
75645;SDS011;64237;52.438;13.240;2023-10-19T06:32:35;25.75;;;11.23;;
75645;SDS011;64237;52.438;13.240;2023-10-19T06:35:01;25.70;;;11.13;;
75645;SDS011;64237;52.438;13.240;2023-10-19T06:37:27;23.65;;;10.18;;
75645;SDS011;64237;52.438;13.240;2023-10-19T06:39:52;28.17;;;12.00;;
75645;SDS011;64237;52.438;13.240;2023-10-19T06:42:18;25.52;;;10.32;;
75645;SDS011;64237;52.438;13.240;2023-10-19T06:44:43;22.08;;;10.68;;
75645;SDS011;64237;52.438;13.240;2023-10-19T06:47:09;25.25;;;9.80;;
75645;SDS011;64237;52.438;13.240;2023-10-19T06:49:35;23.63;;;9.90;;
75645;SDS011;64237;52.438;13.240;2023-10-19T06:52:01;20.63;;;9.60;;
75645;SDS011;64237;52.438;13.240;2023-10-19T06:54:29;25.88;;;10.95;;
75645;SDS011;64237;52.438;13.240;2023-10-19T06:56:54;23.40;;;10.70;;
75645;SDS011;64237;52.438;13.240;2023-10-19T06:59:20;22.60;;;9.75;;
75645;SDS011;64237;52.438;13.240;2023-10-19T07:01:45;27.55;;;11.05;;
75645;SDS011;64237;52.438;13.240;2023-10-19T07:04:11;25.80;;;11.40;;
75645;SDS011;64237;52.438;13.240;2023-10-19T07:06:38;23.73;;;10.65;;
75645;SDS011;64237;52.438;13.240;2023-10-19T07:09:03;23.35;;;11.10;;
75645;SDS011;64237;52.438;13.240;2023-10-19T07:11:31;28.85;;;10.95;;
75645;SDS011;64237;52.438;13.240;2023-10-19T07:13:58;22.08;;;10.80;;
75645;SDS011;64237;52.438;13.240;2023-10-19T07:16:25;24.70;;;10.23;;
75645;SDS011;64237;52.438;13.240;2023-10-19T07:18:50;22.92;;;10.20;;
75645;SDS011;64237;52.438;13.240;2023-10-19T07:21:16;25.80;;;10.75;;
75645;SDS011;64237;52.438;13.240;2023-10-19T07:23:42;23.65;;;10.60;;
75645;SDS011;64237;52.438;13.240;2023-10-19T07:26:09;24.13;;;10.35;;
75645;SDS011;64237;52.438;13.240;2023-10-19T07:28:36;21.75;;;10.30;;
75645;SDS011;64237;52.438;13.240;2023-10-19T07:31:02;21.45;;;10.10;;
75645;SDS011;64237;52.438;13.240;2023-10-19T07:33:28;25.90;;;11.10;;
75645;SDS011;64237;52.438;13.240;2023-10-19T07:35:54;25.00;;;11.07;;
75645;SDS011;64237;52.438;13.240;2023-10-19T07:38:23;29.10;;;10.93;;
75645;SDS011;64237;52.438;13.240;2023-10-19T07:40:49;27.15;;;11.15;;
75645;SDS011;64237;52.438;13.240;2023-10-19T07:43:18;23.70;;;10.82;;
75645;SDS011;64237;52.438;13.240;2023-10-19T07:45:45;23.27;;;10.70;;
75645;SDS011;64237;52.438;13.240;2023-10-19T07:48:12;23.75;;;10.15;;
75645;SDS011;64237;52.438;13.240;2023-10-19T07:50:40;24.70;;;10.45;;
75645;SDS011;64237;52.438;13.240;2023-10-19T07:53:07;22.80;;;10.23;;
75645;SDS011;64237;52.438;13.240;2023-10-19T07:55:34;23.17;;;10.32;;
75645;SDS011;64237;52.438;13.240;2023-10-19T07:57:59;24.17;;;11.23;;
75645;SDS011;64237;52.438;13.240;2023-10-19T08:00:25;22.77;;;10.25;;
75645;SDS011;64237;52.438;13.240;2023-10-19T08:02:51;24.00;;;10.68;;
75645;SDS011;64237;52.438;13.240;2023-10-19T08:05:18;23.40;;;10.63;;
75645;SDS011;64237;52.438;13.240;2023-10-19T08:07:44;27.33;;;10.30;;
75645;SDS011;64237;52.438;13.240;2023-10-19T08:10:12;21.73;;;9.50;;
75645;SDS011;64237;52.438;13.240;2023-10-19T08:12:40;24.38;;;10.35;;
75645;SDS011;64237;52.438;13.240;2023-10-19T08:15:11;22.70;;;10.38;;
75645;SDS011;64237;52.438;13.240;2023-10-19T08:17:38;22.92;;;10.65;;
75645;SDS011;64237;52.438;13.240;2023-10-19T08:20:05;21.67;;;9.50;;
75645;SDS011;64237;52.438;13.240;2023-10-19T08:22:37;24.80;;;9.70;;
75645;SDS011;64237;52.438;13.240;2023-10-19T08:25:03;27.48;;;10.48;;
75645;SDS011;64237;52.438;13.240;2023-10-19T08:27:29;22.77;;;10.18;;
75645;SDS011;64237;52.438;13.240;2023-10-19T08:29:56;23.50;;;10.05;;
75645;SDS011;64237;52.438;13.240;2023-10-19T08:32:22;23.27;;;11.00;;
75645;SDS011;64237;52.438;13.240;2023-10-19T08:34:48;22.27;;;9.73;;
75645;SDS011;64237;52.438;13.240;2023-10-19T08:37:13;23.90;;;10.05;;
75645;SDS011;64237;52.438;13.240;2023-10-19T08:39:39;22.65;;;10.57;;
75645;SDS011;64237;52.438;13.240;2023-10-19T08:42:05;22.55;;;9.63;;
75645;SDS011;64237;52.438;13.240;2023-10-19T08:44:34;25.85;;;10.98;;
75645;SDS011;64237;52.438;13.240;2023-10-19T08:47:00;21.40;;;9.32;;
75645;SDS011;64237;52.438;13.240;2023-10-19T08:49:26;22.13;;;9.68;;
75645;SDS011;64237;52.438;13.240;2023-10-19T08:51:52;21.55;;;9.68;;
75645;SDS011;64237;52.438;13.240;2023-10-19T08:54:19;25.13;;;10.60;;
75645;SDS011;64237;52.438;13.240;2023-10-19T08:56:44;25.45;;;9.95;;
75645;SDS011;64237;52.438;13.240;2023-10-19T08:59:12;26.40;;;9.90;;
75645;SDS011;64237;52.438;13.240;2023-10-19T09:01:40;21.40;;;9.75;;
75645;SDS011;64237;52.438;13.240;2023-10-19T09:04:10;21.35;;;9.13;;
75645;SDS011;64237;52.438;13.240;2023-10-19T09:06:36;22.08;;;9.90;;
75645;SDS011;64237;52.438;13.240;2023-10-19T09:09:11;22.05;;;10.68;;
75645;SDS011;64237;52.438;13.240;2023-10-19T09:11:50;19.50;;;9.45;;
75645;SDS011;64237;52.438;13.240;2023-10-19T09:14:33;21.23;;;9.90;;
75645;SDS011;64237;52.438;13.240;2023-10-19T09:17:01;22.30;;;10.10;;
75645;SDS011;64237;52.438;13.240;2023-10-19T09:19:42;21.95;;;9.50;;
75645;SDS011;64237;52.438;13.240;2023-10-19T09:22:09;18.73;;;9.30;;
75645;SDS011;64237;52.438;13.240;2023-10-19T09:24:44;22.38;;;9.93;;
75645;SDS011;64237;52.438;13.240;2023-10-19T09:27:11;22.27;;;9.73;;
75645;SDS011;64237;52.438;13.240;2023-10-19T09:29:37;24.10;;;10.98;;
75645;SDS011;64237;52.438;13.240;2023-10-19T09:32:03;21.73;;;9.98;;
75645;SDS011;64237;52.438;13.240;2023-10-19T09:34:30;22.95;;;9.90;;
75645;SDS011;64237;52.438;13.240;2023-10-19T09:36:59;24.88;;;10.27;;
75645;SDS011;64237;52.438;13.240;2023-10-19T09:39:28;22.02;;;9.88;;
75645;SDS011;64237;52.438;13.240;2023-10-19T09:42:09;22.80;;;10.30;;
75645;SDS011;64237;52.438;13.240;2023-10-19T09:44:40;25.00;;;9.98;;
75645;SDS011;64237;52.438;13.240;2023-10-19T09:47:29;23.23;;;10.05;;
75645;SDS011;64237;52.438;13.240;2023-10-19T09:49:56;22.75;;;10.20;;
75645;SDS011;64237;52.438;13.240;2023-10-19T09:52:22;22.88;;;10.70;;
75645;SDS011;64237;52.438;13.240;2023-10-19T09:57:34;21.80;;;9.82;;
75645;SDS011;64237;52.438;13.240;2023-10-19T10:00:03;24.55;;;10.60;;
75645;SDS011;64237;52.438;13.240;2023-10-19T10:02:36;25.38;;;10.68;;
75645;SDS011;64237;52.438;13.240;2023-10-19T10:05:03;21.85;;;10.23;;
75645;SDS011;64237;52.438;13.240;2023-10-19T10:07:29;22.20;;;10.48;;
75645;SDS011;64237;52.438;13.240;2023-10-19T10:09:55;25.63;;;11.20;;
75645;SDS011;64237;52.438;13.240;2023-10-19T10:12:22;24.35;;;11.40;;
75645;SDS011;64237;52.438;13.240;2023-10-19T10:17:23;25.15;;;10.57;;
75645;SDS011;64237;52.438;13.240;2023-10-19T10:19:52;23.42;;;11.30;;
75645;SDS011;64237;52.438;13.240;2023-10-19T10:22:19;26.42;;;12.00;;
75645;SDS011;64237;52.438;13.240;2023-10-19T10:24:46;24.13;;;11.30;;
75645;SDS011;64237;52.438;13.240;2023-10-19T10:27:16;25.42;;;11.43;;
75645;SDS011;64237;52.438;13.240;2023-10-19T10:29:54;25.88;;;11.35;;
75645;SDS011;64237;52.438;13.240;2023-10-19T10:32:42;24.50;;;10.75;;
75645;SDS011;64237;52.438;13.240;2023-10-19T10:35:08;27.50;;;11.85;;
75645;SDS011;64237;52.438;13.240;2023-10-19T10:37:37;26.17;;;12.00;;
75645;SDS011;64237;52.438;13.240;2023-10-19T10:40:03;26.45;;;11.77;;
75645;SDS011;64237;52.438;13.240;2023-10-19T10:42:30;24.85;;;11.98;;
75645;SDS011;64237;52.438;13.240;2023-10-19T10:44:56;26.27;;;11.80;;
75645;SDS011;64237;52.438;13.240;2023-10-19T10:47:22;24.58;;;10.90;;
75645;SDS011;64237;52.438;13.240;2023-10-19T10:49:53;28.25;;;12.38;;
75645;SDS011;64237;52.438;13.240;2023-10-19T10:55:08;26.02;;;12.20;;
75645;SDS011;64237;52.438;13.240;2023-10-19T10:57:38;21.35;;;11.43;;
75645;SDS011;64237;52.438;13.240;2023-10-19T11:00:05;24.48;;;12.13;;
75645;SDS011;64237;52.438;13.240;2023-10-19T11:02:35;26.05;;;11.95;;
75645;SDS011;64237;52.438;13.240;2023-10-19T11:05:05;24.50;;;11.35;;
75645;SDS011;64237;52.438;13.240;2023-10-19T11:07:36;23.17;;;11.43;;
75645;SDS011;64237;52.438;13.240;2023-10-19T11:10:02;26.58;;;11.40;;
75645;SDS011;64237;52.438;13.240;2023-10-19T11:12:27;26.48;;;11.68;;
75645;SDS011;64237;52.438;13.240;2023-10-19T11:14:53;25.75;;;11.32;;
75645;SDS011;64237;52.438;13.240;2023-10-19T11:17:19;23.42;;;11.13;;
75645;SDS011;64237;52.438;13.240;2023-10-19T11:19:48;25.63;;;12.20;;
75645;SDS011;64237;52.438;13.240;2023-10-19T11:22:14;23.95;;;11.43;;
75645;SDS011;64237;52.438;13.240;2023-10-19T11:24:41;26.15;;;11.88;;
75645;SDS011;64237;52.438;13.240;2023-10-19T11:27:07;23.73;;;12.02;;
75645;SDS011;64237;52.438;13.240;2023-10-19T11:29:33;23.73;;;11.52;;
75645;SDS011;64237;52.438;13.240;2023-10-19T11:31:59;27.13;;;11.00;;
75645;SDS011;64237;52.438;13.240;2023-10-19T11:34:25;22.48;;;10.52;;
75645;SDS011;64237;52.438;13.240;2023-10-19T11:36:55;21.55;;;10.43;;
75645;SDS011;64237;52.438;13.240;2023-10-19T11:39:25;23.65;;;11.82;;
75645;SDS011;64237;52.438;13.240;2023-10-19T11:44:16;23.23;;;10.20;;
75645;SDS011;64237;52.438;13.240;2023-10-19T11:46:42;21.38;;;10.50;;
75645;SDS011;64237;52.438;13.240;2023-10-19T11:49:08;19.17;;;9.18;;
75645;SDS011;64237;52.438;13.240;2023-10-19T11:51:34;21.58;;;10.68;;
75645;SDS011;64237;52.438;13.240;2023-10-19T11:53:59;21.55;;;10.13;;
75645;SDS011;64237;52.438;13.240;2023-10-19T11:56:25;21.25;;;9.98;;
75645;SDS011;64237;52.438;13.240;2023-10-19T11:58:50;25.48;;;11.88;;
75645;SDS011;64237;52.438;13.240;2023-10-19T12:01:16;22.02;;;10.43;;
75645;SDS011;64237;52.438;13.240;2023-10-19T12:03:44;22.35;;;11.10;;
75645;SDS011;64237;52.438;13.240;2023-10-19T12:06:11;24.58;;;10.68;;
75645;SDS011;64237;52.438;13.240;2023-10-19T12:08:38;23.52;;;11.23;;
75645;SDS011;64237;52.438;13.240;2023-10-19T12:11:05;22.00;;;11.27;;
75645;SDS011;64237;52.438;13.240;2023-10-19T12:13:47;21.58;;;11.25;;
75645;SDS011;64237;52.438;13.240;2023-10-19T12:16:13;22.77;;;11.45;;
75645;SDS011;64237;52.438;13.240;2023-10-19T12:18:40;22.20;;;11.13;;
75645;SDS011;64237;52.438;13.240;2023-10-19T12:21:07;25.35;;;11.48;;
75645;SDS011;64237;52.438;13.240;2023-10-19T12:23:36;22.75;;;10.77;;
75645;SDS011;64237;52.438;13.240;2023-10-19T12:26:03;24.15;;;12.10;;
75645;SDS011;64237;52.438;13.240;2023-10-19T12:28:35;26.17;;;11.65;;
75645;SDS011;64237;52.438;13.240;2023-10-19T12:31:03;27.80;;;12.52;;
75645;SDS011;64237;52.438;13.240;2023-10-19T12:33:30;24.10;;;11.30;;
75645;SDS011;64237;52.438;13.240;2023-10-19T12:35:55;26.73;;;12.30;;
75645;SDS011;64237;52.438;13.240;2023-10-19T12:38:22;28.63;;;12.35;;
75645;SDS011;64237;52.438;13.240;2023-10-19T12:40:48;25.65;;;11.93;;
75645;SDS011;64237;52.438;13.240;2023-10-19T12:43:16;24.95;;;11.45;;
75645;SDS011;64237;52.438;13.240;2023-10-19T12:45:49;23.98;;;11.02;;
75645;SDS011;64237;52.438;13.240;2023-10-19T12:48:15;24.27;;;11.90;;
75645;SDS011;64237;52.438;13.240;2023-10-19T12:50:41;27.42;;;12.57;;
75645;SDS011;64237;52.438;13.240;2023-10-19T12:53:07;26.48;;;12.68;;
75645;SDS011;64237;52.438;13.240;2023-10-19T12:55:33;25.00;;;11.63;;
75645;SDS011;64237;52.438;13.240;2023-10-19T12:57:59;31.70;;;13.40;;
75645;SDS011;64237;52.438;13.240;2023-10-19T13:00:32;27.17;;;12.52;;
75645;SDS011;64237;52.438;13.240;2023-10-19T13:03:04;29.83;;;12.85;;
75645;SDS011;64237;52.438;13.240;2023-10-19T13:07:59;29.15;;;11.73;;
75645;SDS011;64237;52.438;13.240;2023-10-19T13:10:29;26.63;;;12.43;;
75645;SDS011;64237;52.438;13.240;2023-10-19T13:13:02;27.65;;;12.63;;
75645;SDS011;64237;52.438;13.240;2023-10-19T13:15:34;26.80;;;12.13;;
75645;SDS011;64237;52.438;13.240;2023-10-19T13:18:01;28.95;;;12.15;;
75645;SDS011;64237;52.438;13.240;2023-10-19T13:20:28;25.60;;;12.55;;
75645;SDS011;64237;52.438;13.240;2023-10-19T13:22:59;27.40;;;12.68;;
75645;SDS011;64237;52.438;13.240;2023-10-19T13:25:30;25.02;;;12.82;;
75645;SDS011;64237;52.438;13.240;2023-10-19T13:28:12;27.88;;;12.50;;
75645;SDS011;64237;52.438;13.240;2023-10-19T13:30:39;26.60;;;13.35;;
75645;SDS011;64237;52.438;13.240;2023-10-19T13:33:07;26.10;;;12.63;;
75645;SDS011;64237;52.438;13.240;2023-10-19T13:35:36;25.83;;;12.40;;
75645;SDS011;64237;52.438;13.240;2023-10-19T13:38:06;29.55;;;12.27;;
75645;SDS011;64237;52.438;13.240;2023-10-19T13:40:36;27.98;;;13.45;;
75645;SDS011;64237;52.438;13.240;2023-10-19T13:43:06;27.60;;;13.85;;
75645;SDS011;64237;52.438;13.240;2023-10-19T13:45:33;29.10;;;14.45;;
75645;SDS011;64237;52.438;13.240;2023-10-19T13:48:03;31.70;;;14.65;;
75645;SDS011;64237;52.438;13.240;2023-10-19T13:50:29;28.05;;;13.68;;
75645;SDS011;64237;52.438;13.240;2023-10-19T13:52:56;27.38;;;13.15;;
75645;SDS011;64237;52.438;13.240;2023-10-19T13:55:22;29.58;;;14.50;;
75645;SDS011;64237;52.438;13.240;2023-10-19T13:57:49;26.95;;;14.20;;
75645;SDS011;64237;52.438;13.240;2023-10-19T14:00:15;30.17;;;14.57;;
75645;SDS011;64237;52.438;13.240;2023-10-19T14:03:11;28.15;;;13.50;;
75645;SDS011;64237;52.438;13.240;2023-10-19T14:05:39;34.00;;;14.35;;
75645;SDS011;64237;52.438;13.240;2023-10-19T14:08:08;28.33;;;13.15;;
75645;SDS011;64237;52.438;13.240;2023-10-19T14:10:34;28.52;;;14.82;;
75645;SDS011;64237;52.438;13.240;2023-10-19T14:13:02;28.67;;;12.77;;
75645;SDS011;64237;52.438;13.240;2023-10-19T14:15:30;27.73;;;13.95;;
75645;SDS011;64237;52.438;13.240;2023-10-19T14:17:58;26.73;;;13.80;;
75645;SDS011;64237;52.438;13.240;2023-10-19T14:20:24;25.98;;;13.60;;
75645;SDS011;64237;52.438;13.240;2023-10-19T14:22:51;28.30;;;14.65;;
75645;SDS011;64237;52.438;13.240;2023-10-19T14:25:21;29.38;;;14.15;;
75645;SDS011;64237;52.438;13.240;2023-10-19T14:27:48;29.10;;;14.45;;
75645;SDS011;64237;52.438;13.240;2023-10-19T14:30:22;34.15;;;13.48;;
75645;SDS011;64237;52.438;13.240;2023-10-19T14:32:49;27.85;;;12.68;;
75645;SDS011;64237;52.438;13.240;2023-10-19T14:35:15;29.10;;;12.68;;
75645;SDS011;64237;52.438;13.240;2023-10-19T14:37:43;27.55;;;13.75;;
75645;SDS011;64237;52.438;13.240;2023-10-19T14:40:15;29.60;;;13.25;;
75645;SDS011;64237;52.438;13.240;2023-10-19T14:42:45;27.25;;;13.20;;
75645;SDS011;64237;52.438;13.240;2023-10-19T14:45:15;29.20;;;14.75;;
75645;SDS011;64237;52.438;13.240;2023-10-19T14:47:46;34.78;;;14.88;;
75645;SDS011;64237;52.438;13.240;2023-10-19T14:50:13;32.38;;;14.73;;